Time;durP1;ratioP1;P1;durP2;ratioP2;P2;SDS_P1;SDS_P2;PMS_P1;PMS_P2;Temp;Humidity;BMP_temperature;BMP_pressure;BME280_temperature;BME280_humidity;BME280_pressure;Samples;Min_cycle;Max_cycle;Signal;HPM_P1;HPM_P2
2023/08/28 00:02:12;;;;;;;1.15;1.15;;;;;;;14.40;100.00;101184.19;5094002;28;20031;-75
2023/08/28 00:04:37;;;;;;;1.30;1.20;;;;;;;14.38;100.00;101180.78;5094201;28;20028;-75
2023/08/28 00:07:03;;;;;;;1.52;1.10;;;;;;;14.37;100.00;101186.97;5094106;28;20098;-75
2023/08/28 00:09:28;;;;;;;1.30;1.10;;;;;;;14.35;100.00;101184.44;5094484;28;20149;-75
2023/08/28 00:11:57;;;;;;;3.28;1.38;;;;;;;14.34;100.00;101176.63;5088429;28;20031;-75
2023/08/28 00:14:24;;;;;;;2.10;1.40;;;;;;;14.33;100.00;101181.00;5087218;28;20062;-75
2023/08/28 00:16:49;;;;;;;2.08;1.40;;;;;;;14.33;100.00;101173.13;5093734;28;20032;-75
2023/08/28 00:19:15;;;;;;;2.25;1.15;;;;;;;14.32;100.00;101173.22;5094621;28;20020;-75
2023/08/28 00:21:40;;;;;;;1.20;1.10;;;;;;;14.31;100.00;101169.72;5093363;28;20055;-75
2023/08/28 00:24:06;;;;;;;2.45;1.27;;;;;;;14.31;100.00;101176.78;5067860;28;20036;-74
2023/08/28 00:26:32;;;;;;;1.10;1.10;;;;;;;14.31;100.00;101176.78;5091530;28;20031;-74
2023/08/28 00:28:57;;;;;;;0.80;0.80;;;;;;;14.31;100.00;101182.03;5093933;28;20036;-74
2023/08/28 00:31:22;;;;;;;0.75;0.75;;;;;;;14.29;100.00;101184.75;5093201;28;20097;-75
2023/08/28 00:33:48;;;;;;;1.45;0.93;;;;;;;14.30;100.00;101183.81;5093499;28;20028;-75
2023/08/28 00:36:15;;;;;;;2.40;1.10;;;;;;;14.28;100.00;101188.31;5087589;28;20067;-75
2023/08/28 00:38:40;;;;;;;4.10;1.20;;;;;;;14.28;100.00;101182.19;5092701;28;20047;-75
2023/08/28 00:41:05;;;;;;;4.10;0.88;;;;;;;14.27;100.00;101181.34;5094154;28;20035;-75
2023/08/28 00:43:31;;;;;;;1.45;0.90;;;;;;;14.28;100.00;101177.78;5092925;28;20331;-75
2023/08/28 00:45:56;;;;;;;1.90;0.93;;;;;;;14.27;100.00;101186.59;5093413;28;20039;-75
2023/08/28 00:48:22;;;;;;;1.35;0.90;;;;;;;14.27;100.00;101178.69;5092885;28;20373;-75
2023/08/28 00:50:49;;;;;;;1.00;1.00;;;;;;;14.26;100.00;101168.25;5093929;28;20052;-75
2023/08/28 00:53:16;;;;;;;3.97;1.17;;;;;;;14.25;100.00;101169.19;5093407;28;20035;-75
2023/08/28 00:55:42;;;;;;;2.58;0.90;;;;;;;14.24;100.00;101163.03;5075718;28;20028;-75
2023/08/28 00:58:08;;;;;;;0.80;0.80;;;;;;;14.23;100.00;101169.25;5093713;28;20461;-75
2023/08/28 01:00:34;;;;;;;1.80;0.95;;;;;;;14.23;100.00;101166.63;5092401;28;20040;-75
2023/08/28 01:02:59;;;;;;;0.80;0.80;;;;;;;14.23;100.00;101171.06;5082593;28;20056;-75
2023/08/28 01:05:35;;;;;;;1.30;1.20;;;;;;;14.21;100.00;101169.34;5092233;28;20035;-75
2023/08/28 01:08:29;;;;;;;1.85;1.27;;;;;;;14.22;100.00;101178.06;5091207;28;20106;-75
2023/08/28 01:11:04;;;;;;;1.50;1.10;;;;;;;14.19;100.00;101176.47;5093804;28;20032;-75
2023/08/28 01:13:47;;;;;;;1.10;1.00;;;;;;;14.18;100.00;101179.16;5087524;28;20056;-75
2023/08/28 01:16:13;;;;;;;1.30;0.90;;;;;;;14.17;100.00;101173.06;5096410;28;20239;-75
2023/08/28 01:18:39;;;;;;;2.40;1.13;;;;;;;14.16;100.00;101173.13;5096432;28;20035;-75
2023/08/28 01:21:06;;;;;;;0.85;0.85;;;;;;;14.14;100.00;101167.09;5091614;28;20354;-75
2023/08/28 01:23:48;;;;;;;1.77;1.02;;;;;;;14.13;100.00;101173.28;5096493;28;20063;-75
2023/08/28 01:26:15;;;;;;;0.95;0.93;;;;;;;14.10;100.00;101165.53;5097833;28;20032;-75
2023/08/28 01:28:41;;;;;;;1.20;0.82;;;;;;;14.09;100.00;101164.69;5096325;28;20040;-75
2023/08/28 01:31:07;;;;;;;0.95;0.82;;;;;;;14.08;100.00;101157.72;5097263;28;20038;-75
2023/08/28 01:33:34;;;;;;;3.83;1.02;;;;;;;14.07;100.00;101158.63;5096168;28;20044;-75
2023/08/28 01:36:12;;;;;;;0.93;0.90;;;;;;;14.06;100.00;101161.34;5097422;28;20258;-74
2023/08/28 01:38:52;;;;;;;1.02;0.90;;;;;;;14.04;100.00;101160.56;5096105;28;20031;-74
2023/08/28 01:41:20;;;;;;;0.80;0.80;;;;;;;14.01;100.00;101158.97;5097120;28;20055;-75
2023/08/28 01:43:48;;;;;;;1.27;1.10;;;;;;;13.99;100.00;101150.28;5094612;28;20024;-75
2023/08/28 01:46:15;;;;;;;0.98;0.98;;;;;;;13.98;100.00;101153.84;5094873;28;20507;-75
2023/08/28 01:48:44;;;;;;;1.63;0.90;;;;;;;13.98;100.00;101151.19;5088356;28;20042;-75
2023/08/28 01:51:10;;;;;;;1.02;1.02;;;;;;;13.95;100.00;101149.59;5097282;28;20040;-75
2023/08/28 01:53:35;;;;;;;1.70;1.42;;;;;;;13.94;100.00;101149.66;5095734;28;20036;-75
2023/08/28 01:56:06;;;;;;;1.30;1.13;;;;;;;13.93;100.00;101159.31;5088924;28;20105;-75
2023/08/28 01:58:34;;;;;;;2.78;1.10;;;;;;;13.92;100.00;101164.69;5096155;28;20071;-75
2023/08/28 02:00:59;;;;;;;1.33;1.00;;;;;;;13.90;100.00;101166.50;5096798;28;20040;-75
2023/08/28 02:03:24;;;;;;;0.80;0.80;;;;;;;13.89;100.00;101165.66;5095715;28;20040;-75
2023/08/28 02:05:49;;;;;;;1.25;0.90;;;;;;;13.88;100.00;101174.50;5097150;28;20048;-75
2023/08/28 02:08:15;;;;;;;1.13;0.85;;;;;;;13.88;100.00;101173.63;5096404;28;20036;-75
2023/08/28 02:10:43;;;;;;;0.93;0.93;;;;;;;13.85;100.00;101166.75;5096511;28;20095;-75
2023/08/28 02:13:08;;;;;;;1.30;1.17;;;;;;;13.85;100.00;101169.38;5093753;28;20034;-73
2023/08/28 02:15:34;;;;;;;0.95;0.90;;;;;;;13.82;100.00;101164.25;5095829;28;20082;-73
2023/08/28 02:17:59;;;;;;;1.02;0.80;;;;;;;13.82;100.00;101164.25;5097236;28;20032;-73
2023/08/28 02:20:25;;;;;;;0.77;0.70;;;;;;;13.78;100.00;101153.03;5097427;28;20047;-73
2023/08/28 02:22:50;;;;;;;0.80;0.80;;;;;;;13.77;100.00;101158.38;5098039;28;20024;-73
2023/08/28 02:25:20;;;;;;;0.70;0.60;;;;;;;13.74;100.00;101148.84;5096426;28;20039;-73
2023/08/28 02:27:46;;;;;;;1.10;0.75;;;;;;;13.74;100.00;101145.38;5097138;28;20069;-73
2023/08/28 02:30:12;;;;;;;1.58;1.00;;;;;;;13.72;100.00;101136.72;5091874;28;20447;-73
2023/08/28 02:32:37;;;;;;;0.73;0.73;;;;;;;13.71;100.00;101132.34;5096530;28;20218;-73
2023/08/28 02:35:02;;;;;;;0.90;0.90;;;;;;;13.70;100.00;101126.25;5095720;28;20252;-73
2023/08/28 02:37:28;;;;;;;3.17;1.00;;;;;;;13.69;100.00;101124.53;5096558;28;20043;-73
2023/08/28 02:39:53;;;;;;;1.20;1.00;;;;;;;13.69;100.00;101121.06;5093190;28;20043;-73
2023/08/28 02:42:19;;;;;;;1.98;1.00;;;;;;;13.66;100.00;101122.06;5096607;28;20282;-73
2023/08/28 02:44:44;;;;;;;0.90;0.90;;;;;;;13.66;100.00;101121.19;5096865;28;20031;-73
2023/08/28 02:47:09;;;;;;;1.23;1.13;;;;;;;13.65;100.00;101130.03;5097330;28;20028;-73
2023/08/28 02:49:35;;;;;;;0.90;0.90;;;;;;;13.61;100.00;101132.81;5090808;28;20360;-73
2023/08/28 02:52:00;;;;;;;2.22;1.10;;;;;;;13.61;100.00;101130.19;5097149;28;20345;-73
2023/08/28 02:54:26;;;;;;;1.50;1.10;;;;;;;13.61;100.00;101127.56;5095495;28;20043;-73
2023/08/28 02:56:51;;;;;;;0.98;0.98;;;;;;;13.59;100.00;101123.31;5096861;28;20027;-73
2023/08/28 02:59:16;;;;;;;1.00;1.00;;;;;;;13.57;100.00;101123.38;5095835;28;20415;-73
2023/08/28 03:01:42;;;;;;;1.02;0.93;;;;;;;13.56;100.00;101121.66;5095994;28;20059;-73
2023/08/28 03:04:07;;;;;;;2.22;1.00;;;;;;;13.55;100.00;101124.34;5096125;28;20034;-73
2023/08/28 03:06:37;;;;;;;1.40;0.90;;;;;;;13.53;100.00;101118.31;5096084;28;20212;-73
2023/08/28 03:09:03;;;;;;;0.93;0.88;;;;;;;13.51;100.00;101117.53;5096316;28;20036;-73
2023/08/28 03:11:28;;;;;;;1.02;0.90;;;;;;;13.50;100.00;101115.81;5096899;28;20243;-73
2023/08/28 03:13:54;;;;;;;1.13;1.02;;;;;;;13.49;100.00;101120.25;5094829;28;20034;-73
2023/08/28 03:16:20;;;;;;;1.10;1.00;;;;;;;13.49;100.00;101124.66;5091302;28;20242;-73
2023/08/28 03:18:45;;;;;;;1.17;1.17;;;;;;;13.48;100.00;101126.44;5074374;28;20032;-73
2023/08/28 03:21:11;;;;;;;0.80;0.80;;;;;;;13.48;100.00;101134.34;5095663;28;20261;-73
2023/08/28 03:23:36;;;;;;;0.85;0.85;;;;;;;13.49;100.00;101140.44;5095411;28;20039;-73
2023/08/28 03:26:02;;;;;;;0.90;0.90;;;;;;;13.46;100.00;101141.44;5095669;28;20035;-73
2023/08/28 03:28:28;;;;;;;1.10;1.00;;;;;;;13.48;100.00;101138.72;5095360;28;20067;-73
2023/08/28 03:30:57;;;;;;;1.17;1.10;;;;;;;13.46;100.00;101141.44;5095341;28;20047;-73
2023/08/28 03:33:23;;;;;;;0.80;0.80;;;;;;;13.46;100.00;101144.06;5095841;28;20270;-73
2023/08/28 03:35:49;;;;;;;1.15;1.00;;;;;;;13.44;100.00;101148.53;5095320;28;20051;-73
2023/08/28 03:38:14;;;;;;;0.90;0.90;;;;;;;13.44;100.00;101148.53;5090634;28;20275;-73
2023/08/28 03:40:39;;;;;;;1.00;1.00;;;;;;;13.44;100.00;101153.81;5094321;28;20204;-73
2023/08/28 03:43:05;;;;;;;1.95;1.10;;;;;;;13.43;100.00;101152.13;5096073;28;20051;-73
2023/08/28 03:45:30;;;;;;;0.98;0.98;;;;;;;13.43;100.00;101158.22;5088310;28;20094;-73
2023/08/28 03:47:56;;;;;;;0.90;0.90;;;;;;;13.43;100.00;101158.22;5087709;28;20264;-73
2023/08/28 03:50:21;;;;;;;1.48;1.13;;;;;;;13.46;100.00;101162.47;5087026;28;20150;-73
2023/08/28 03:52:47;;;;;;;0.90;0.90;;;;;;;13.43;100.00;101152.97;5095569;28;20048;-73
2023/08/28 03:55:12;;;;;;;1.58;0.93;;;;;;;13.46;100.00;101156.38;5088448;28;20107;-73
2023/08/28 03:57:38;;;;;;;0.80;0.80;;;;;;;13.46;100.00;101159.84;5094557;28;20031;-73
2023/08/28 04:00:10;;;;;;;1.38;0.85;;;;;;;13.45;100.00;101166.06;5094916;28;20441;-73
2023/08/28 04:02:37;;;;;;;0.82;0.82;;;;;;;13.46;100.00;101174.78;5095235;28;20707;-73
2023/08/28 04:05:04;;;;;;;1.13;0.93;;;;;;;13.47;100.00;101176.50;5094672;28;20285;-73
2023/08/28 04:07:31;;;;;;;0.80;0.80;;;;;;;13.47;100.00;101168.63;5092574;28;20429;-73
2023/08/28 04:09:57;;;;;;;1.00;0.80;;;;;;;13.46;100.00;101167.75;5094815;28;20039;-73
2023/08/28 04:12:22;;;;;;;1.20;1.13;;;;;;;13.47;100.00;101165.97;5095675;28;20100;-73
2023/08/28 04:14:48;;;;;;;0.90;0.90;;;;;;;13.46;100.00;101172.16;5095441;28;20064;-73
2023/08/28 04:17:13;;;;;;;1.08;0.90;;;;;;;13.47;100.00;101174.72;5096227;28;20286;-73
2023/08/28 04:19:40;;;;;;;1.10;1.00;;;;;;;13.47;100.00;101177.34;5094396;28;20036;-73
2023/08/28 04:22:06;;;;;;;0.70;0.70;;;;;;;13.47;100.00;101179.97;5094565;28;20073;-73
2023/08/28 04:24:31;;;;;;;1.17;1.02;;;;;;;13.47;100.00;101187.88;5093077;28;20036;-73
2023/08/28 04:26:56;;;;;;;1.45;1.35;;;;;;;13.48;100.00;101189.59;5094121;28;20048;-73
2023/08/28 04:29:22;;;;;;;1.20;1.10;;;;;;;13.48;100.00;101191.34;5095958;28;20255;-73
2023/08/28 04:31:47;;;;;;;1.23;1.13;;;;;;;13.49;100.00;101188.66;5095245;28;20253;-73
2023/08/28 04:34:13;;;;;;;2.55;1.73;;;;;;;13.49;100.00;101193.91;5095721;28;20040;-73
2023/08/28 04:36:39;;;;;;;1.30;1.20;;;;;;;13.50;100.00;101193.00;5094557;28;20038;-73
2023/08/28 04:39:04;;;;;;;1.15;1.15;;;;;;;13.51;100.00;101191.22;5087821;28;20032;-73
2023/08/28 04:41:30;;;;;;;1.20;1.20;;;;;;;13.51;100.00;101197.31;5090907;28;20050;-73
2023/08/28 04:43:55;;;;;;;1.00;1.00;;;;;;;13.51;100.00;101197.31;5077033;28;20069;-73
2023/08/28 04:46:21;;;;;;;2.20;1.30;;;;;;;13.52;100.00;101204.31;5095359;28;20035;-73
2023/08/28 04:48:47;;;;;;;1.40;1.30;;;;;;;13.52;100.00;101204.31;5096977;28;20028;-73
2023/08/28 04:51:13;;;;;;;1.48;1.20;;;;;;;13.52;100.00;101220.09;5099018;28;20035;-73
2023/08/28 04:53:38;;;;;;;1.20;1.20;;;;;;;13.53;100.00;101223.56;5099371;28;20056;-73
2023/08/28 04:56:04;;;;;;;1.42;1.23;;;;;;;13.52;100.00;101221.88;5099954;28;20343;-73
2023/08/28 04:58:29;;;;;;;1.40;1.30;;;;;;;13.52;100.00;101225.34;5099635;28;20069;-73
2023/08/28 05:00:55;;;;;;;1.20;1.10;;;;;;;13.52;100.00;101224.50;5096341;28;20115;-73
2023/08/28 05:03:21;;;;;;;1.23;1.13;;;;;;;13.52;100.00;101235.88;5094683;28;20335;-73
2023/08/28 05:05:47;;;;;;;1.42;1.30;;;;;;;13.52;100.00;101227.13;5099336;28;20036;-73
2023/08/28 05:08:12;;;;;;;1.23;1.10;;;;;;;13.51;100.00;101231.53;5099736;28;20342;-73
2023/08/28 05:10:38;;;;;;;1.30;1.20;;;;;;;13.51;100.00;101236.78;5096576;28;20289;-73
2023/08/28 05:13:03;;;;;;;1.83;1.33;;;;;;;13.51;100.00;101235.94;5087730;28;20036;-73
2023/08/28 05:15:28;;;;;;;1.30;1.30;;;;;;;13.51;100.00;101234.16;5089843;28;20059;-73
2023/08/28 05:17:54;;;;;;;1.15;1.10;;;;;;;13.51;100.00;101234.16;5099514;28;20547;-73
2023/08/28 05:20:19;;;;;;;1.05;1.05;;;;;;;13.51;100.00;101228.91;5098960;28;20081;-73
2023/08/28 05:22:45;;;;;;;1.70;1.25;;;;;;;13.52;100.00;101229.78;5098376;28;20024;-73
2023/08/28 05:25:10;;;;;;;1.15;1.15;;;;;;;13.52;100.00;101233.25;5099708;28;20043;-73
2023/08/28 05:27:35;;;;;;;1.08;1.05;;;;;;;13.53;100.00;101227.03;5097932;28;20070;-73
2023/08/28 05:30:01;;;;;;;2.38;1.17;;;;;;;13.53;100.00;101232.31;5089530;28;20052;-73
2023/08/28 05:32:26;;;;;;;3.55;1.20;;;;;;;13.54;100.00;101228.75;5093846;28;20384;-73
2023/08/28 05:34:53;;;;;;;1.38;1.27;;;;;;;13.55;100.00;101230.47;5098882;28;20292;-73
2023/08/28 05:37:18;;;;;;;2.08;1.98;;;;;;;13.57;100.00;101235.66;5093513;28;20315;-73
2023/08/28 05:39:44;;;;;;;2.17;1.73;;;;;;;13.57;100.00;101231.25;5098957;28;20051;-73
2023/08/28 05:42:09;;;;;;;2.10;1.90;;;;;;;13.57;100.00;101231.25;5097065;28;20027;-73
2023/08/28 05:44:35;;;;;;;1.92;1.60;;;;;;;13.60;100.00;101228.47;5091175;28;20209;-73
2023/08/28 05:47:00;;;;;;;1.70;1.60;;;;;;;13.61;100.00;101229.34;5085815;28;20063;-73
2023/08/28 05:49:26;;;;;;;2.35;1.48;;;;;;;13.62;100.00;101229.28;5083339;28;20119;-73
2023/08/28 05:51:51;;;;;;;4.05;1.92;;;;;;;13.62;100.00;101231.91;5086835;28;20081;-73
2023/08/28 05:54:17;;;;;;;2.75;1.65;;;;;;;13.64;100.00;101237.06;5089745;28;20239;-73
2023/08/28 05:56:42;;;;;;;2.00;1.73;;;;;;;13.66;100.00;101229.09;5086898;28;20234;-73
2023/08/28 05:59:07;;;;;;;1.60;1.50;;;;;;;13.66;100.00;101216.81;5087356;28;20096;-73
2023/08/28 06:01:33;;;;;;;1.80;1.70;;;;;;;13.69;100.00;101223.69;5085075;28;20032;-73
2023/08/28 06:03:58;;;;;;;1.50;1.40;;;;;;;13.69;100.00;101221.06;5085416;28;20042;-73
2023/08/28 06:06:23;;;;;;;2.15;2.05;;;;;;;13.70;100.00;101212.22;5083912;28;20028;-73
2023/08/28 06:08:49;;;;;;;2.53;1.55;;;;;;;13.72;100.00;101227.03;5067968;28;20488;-73
2023/08/28 06:11:14;;;;;;;1.92;1.83;;;;;;;13.73;100.00;101226.09;5084558;28;20036;-73
2023/08/28 06:13:40;;;;;;;1.80;1.70;;;;;;;13.74;100.00;101225.19;5083156;28;20032;-73
2023/08/28 06:16:05;;;;;;;2.15;1.95;;;;;;;13.76;100.00;101225.13;5084052;28;20109;-73
2023/08/28 06:18:31;;;;;;;1.50;1.40;;;;;;;13.77;100.00;101217.16;5089737;28;20056;-73
2023/08/28 06:20:56;;;;;;;5.25;1.50;;;;;;;13.78;100.00;101221.47;5082086;28;20366;-73
2023/08/28 06:23:22;;;;;;;2.00;1.90;;;;;;;13.81;100.00;101225.75;5081639;28;20373;-73
2023/08/28 06:25:47;;;;;;;1.70;1.60;;;;;;;13.82;100.00;101230.06;5084054;28;20056;-73
2023/08/28 06:28:13;;;;;;;1.77;1.67;;;;;;;13.83;100.00;101224.75;5081852;28;20485;-73
2023/08/28 06:30:39;;;;;;;1.40;1.30;;;;;;;13.84;100.00;101222.94;5084347;28;20031;-73
2023/08/28 06:33:04;;;;;;;1.95;1.63;;;;;;;13.86;100.00;101222.88;5090741;28;20085;-73
2023/08/28 06:35:32;;;;;;;1.80;1.70;;;;;;;13.88;100.00;101229.81;5089421;28;20062;-73
2023/08/28 06:37:57;;;;;;;1.50;1.40;;;;;;;13.89;100.00;101231.50;5072124;28;20032;-73
2023/08/28 06:40:23;;;;;;;2.10;1.90;;;;;;;13.91;100.00;101231.41;5096298;28;20335;-73
2023/08/28 06:42:48;;;;;;;1.55;1.45;;;;;;;13.92;100.00;101233.97;5096310;28;20036;-73
2023/08/28 06:45:13;;;;;;;1.55;1.45;;;;;;;13.95;100.00;101239.13;5084549;28;20359;-73
2023/08/28 06:47:39;;;;;;;1.92;1.65;;;;;;;13.97;100.00;101229.34;5067311;28;20239;-73
2023/08/28 06:50:05;;;;;;;1.60;1.50;;;;;;;13.99;100.00;101234.56;5091027;28;20040;-73
2023/08/28 06:52:30;;;;;;;1.85;1.75;;;;;;;14.01;100.00;101236.16;5094692;28;20044;-73
2023/08/28 06:54:55;;;;;;;2.58;2.10;;;;;;;14.02;100.00;101237.88;5095864;28;20031;-73
2023/08/28 06:57:21;;;;;;;2.03;1.70;;;;;;;14.04;100.00;101232.53;5093698;28;20032;-73
2023/08/28 06:59:46;;;;;;;1.70;1.60;;;;;;;14.08;100.00;101236.72;5088415;28;20039;-73
2023/08/28 07:02:12;;;;;;;2.08;1.88;;;;;;;14.09;100.00;101238.41;5096497;28;20109;-73
2023/08/28 07:04:37;;;;;;;2.00;1.85;;;;;;;14.11;100.00;101241.81;5091568;28;20078;-73
2023/08/28 07:07:03;;;;;;;1.88;1.77;;;;;;;14.13;100.00;101241.75;5097164;28;20062;-73
2023/08/28 07:09:28;;;;;;;1.90;1.80;;;;;;;14.15;100.00;101245.16;5094410;28;20039;-73
2023/08/28 07:11:53;;;;;;;2.85;2.25;;;;;;;14.16;100.00;101238.97;5096120;28;20332;-73
2023/08/28 07:14:19;;;;;;;2.20;2.10;;;;;;;14.19;100.00;101247.59;5094902;28;20274;-73
2023/08/28 07:16:44;;;;;;;2.45;1.92;;;;;;;14.23;100.00;101242.19;5094385;28;20114;-73
2023/08/28 07:19:10;;;;;;;1.98;1.88;;;;;;;14.25;100.00;101237.69;5096171;28;20326;-73
2023/08/28 07:21:35;;;;;;;3.50;2.20;;;;;;;14.27;100.00;101247.19;5092198;28;20271;-73
2023/08/28 07:24:01;;;;;;;2.13;2.00;;;;;;;14.30;100.00;101252.31;5095804;28;20032;-73
2023/08/28 07:26:26;;;;;;;2.30;2.20;;;;;;;14.33;100.00;101246.03;5096786;28;20058;-73
2023/08/28 07:28:51;;;;;;;2.08;1.98;;;;;;;14.36;100.00;101243.25;5091989;28;20398;-73
2023/08/28 07:31:17;;;;;;;2.10;2.00;;;;;;;14.38;100.00;101252.78;5071166;28;20039;-73
2023/08/28 07:33:42;;;;;;;4.18;2.30;;;;;;;14.41;100.00;101251.78;5083167;28;20255;-73
2023/08/28 07:36:08;;;;;;;2.40;2.20;;;;;;;14.44;100.00;101256.03;5085180;28;20388;-73
2023/08/28 07:38:33;;;;;;;2.35;2.25;;;;;;;14.48;100.00;101257.59;5083235;28;20036;-73
2023/08/28 07:40:58;;;;;;;2.75;2.55;;;;;;;14.52;100.00;101260.00;5083065;28;20029;-73
2023/08/28 07:43:24;;;;;;;2.45;2.10;;;;;;;14.53;100.00;101248.50;5088019;28;20103;-73
2023/08/28 07:45:50;;;;;;;2.97;2.08;;;;;;;14.56;100.00;101253.63;5067005;28;20091;-73
2023/08/28 07:48:15;;;;;;;3.55;1.90;;;;;;;14.61;100.00;101256.09;5087323;28;20044;-73
2023/08/28 07:50:41;;;;;;;3.67;2.30;;;;;;;14.63;100.00;101258.66;5084894;28;20035;-73
2023/08/28 07:53:06;;;;;;;2.53;2.35;;;;;;;14.65;100.00;101257.63;5092127;28;20062;-73
2023/08/28 07:55:32;;;;;;;2.33;2.13;;;;;;;14.70;100.00;101258.25;5079307;28;20040;-73
2023/08/28 07:57:58;;;;;;;2.63;2.42;;;;;;;14.72;100.00;101266.09;5083625;28;20024;-73
2023/08/28 08:00:23;;;;;;;1.95;1.85;;;;;;;14.72;100.00;101259.03;5086686;28;20044;-73
2023/08/28 08:02:51;;;;;;;4.57;2.35;;;;;;;14.75;100.00;101261.50;5084466;28;20322;-73
2023/08/28 08:05:17;;;;;;;2.43;2.27;;;;;;;14.77;100.00;101259.63;5085766;28;20020;-73
2023/08/28 08:07:42;;;;;;;2.08;1.90;;;;;;;14.77;100.00;101278.09;5085028;28;20113;-73
2023/08/28 08:10:09;;;;;;;1.73;1.63;;;;;;;14.79;100.00;101272.75;5084209;28;20035;-73
2023/08/28 08:12:35;;;;;;;1.80;1.70;;;;;;;14.78;100.00;101274.50;5082135;28;20087;-73
2023/08/28 08:15:00;;;;;;;2.00;1.90;;;;;;;14.78;100.00;101277.16;5085332;28;20075;-73
2023/08/28 08:17:26;;;;;;;1.60;1.50;;;;;;;14.81;100.00;101281.44;5081122;28;20339;-73
2023/08/28 08:19:51;;;;;;;1.90;1.80;;;;;;;14.82;100.00;101274.38;5084284;28;20104;-73
2023/08/28 08:22:16;;;;;;;2.75;1.98;;;;;;;14.83;100.00;101281.34;5088876;28;20286;-73
2023/08/28 08:24:42;;;;;;;1.95;1.85;;;;;;;14.84;100.00;101270.69;5095559;28;20036;-73
2023/08/28 08:27:07;;;;;;;2.20;2.00;;;;;;;14.86;100.00;101268.00;5087223;28;20036;-73
2023/08/28 08:29:33;;;;;;;2.45;2.00;;;;;;;14.89;100.00;101275.75;5088515;28;20028;-73
2023/08/28 08:31:59;;;;;;;2.80;1.75;;;;;;;14.90;100.00;101270.41;5095302;28;20097;-73
2023/08/28 08:34:24;;;;;;;1.60;1.50;;;;;;;14.93;100.00;101269.38;5094458;28;20126;-73
2023/08/28 08:36:49;;;;;;;2.90;1.42;;;;;;;14.95;100.00;101276.28;5089730;28;20146;-73
2023/08/28 08:39:15;;;;;;;1.30;1.20;;;;;;;14.98;100.00;101276.13;5083023;28;20048;-73
2023/08/28 08:41:42;;;;;;;1.63;1.48;;;;;;;15.00;100.00;101270.75;5068149;28;20034;-73
2023/08/28 08:44:07;;;;;;;1.63;1.10;;;;;;;15.02;100.00;101273.31;5094363;28;20081;-73
2023/08/28 08:46:34;;;;;;;2.80;1.30;;;;;;;15.04;100.00;101274.09;5094531;28;20044;-73
2023/08/28 08:49:00;;;;;;;1.42;1.10;;;;;;;15.05;100.00;101276.66;5087786;28;20035;-73
2023/08/28 08:51:29;;;;;;;5.88;1.70;;;;;;;15.08;100.00;101273.00;5094375;28;20040;-73
2023/08/28 08:54:04;;;;;;;1.70;1.60;;;;;;;15.09;100.00;101277.34;5092412;28;20093;-73
2023/08/28 08:56:31;;;;;;;2.92;1.52;;;;;;;15.10;100.00;101276.44;5095104;28;20035;-73
2023/08/28 08:58:58;;;;;;;4.23;1.83;;;;;;;15.14;100.00;101277.97;5089128;28;20384;-73
2023/08/28 09:01:25;;;;;;;4.18;1.50;;;;;;;15.16;100.00;101281.38;5095343;28;20047;-73
2023/08/28 09:03:50;;;;;;;2.38;1.20;;;;;;;15.19;100.00;101280.34;5093937;28;20040;-73
2023/08/28 09:06:16;;;;;;;1.48;1.08;;;;;;;15.21;100.00;101287.25;5094508;28;20200;-73
2023/08/28 09:08:42;;;;;;;0.98;0.90;;;;;;;15.23;100.00;101272.19;5085913;28;20148;-73
2023/08/28 09:11:08;;;;;;;1.42;0.90;;;;;;;15.25;100.00;101270.31;5094127;28;20072;-73
2023/08/28 09:13:38;;;;;;;0.82;0.70;;;;;;;15.27;100.00;101264.97;5086973;28;20036;-73
2023/08/28 09:16:04;;;;;;;1.73;0.88;;;;;;;15.31;100.00;101269.13;5093207;28;20040;-73
2023/08/28 09:18:29;;;;;;;2.00;0.80;;;;;;;15.33;100.00;101272.53;5092732;28;20092;-73
2023/08/28 09:21:24;;;;;;;2.03;1.02;;;;;;;15.36;100.00;101275.03;5093629;28;20059;-73
2023/08/28 09:23:53;;;;;;;2.67;0.93;;;;;;;15.38;100.00;101270.50;5069526;28;20056;-73
2023/08/28 09:26:20;;;;;;;2.28;1.08;;;;;;;15.40;100.00;101273.06;5091632;28;20215;-73
2023/08/28 09:29:04;;;;;;;1.25;0.75;;;;;;;15.41;100.00;101275.63;5086917;28;20024;-73
2023/08/28 09:31:33;;;;;;;1.40;0.80;;;;;;;15.44;100.00;101275.44;5088147;28;20107;-73
2023/08/28 09:33:59;;;;;;;1.70;0.98;;;;;;;15.46;100.00;101273.59;5086915;28;20038;-73
2023/08/28 09:36:25;;;;;;;1.75;0.90;;;;;;;15.47;100.00;101270.00;5089174;28;20055;-73
2023/08/28 09:38:51;;;;;;;0.77;0.77;;;;;;;15.49;100.00;101278.69;5095639;28;20043;-73
2023/08/28 09:41:16;;;;;;;2.15;0.68;;;;;;;15.52;100.00;101275.06;5096161;28;20232;-73
2023/08/28 09:43:42;;;;;;;0.88;0.70;;;;;;;15.55;100.00;101274.88;5097183;28;20091;-73
2023/08/28 09:46:07;;;;;;;0.70;0.68;;;;;;;15.59;99.79;101278.19;5086381;28;20247;-73
2023/08/28 09:48:34;;;;;;;0.55;0.50;;;;;;;15.61;99.91;101282.47;5082513;28;20358;-73
2023/08/28 09:51:04;;;;;;;1.10;0.68;;;;;;;15.62;99.68;101281.53;5096967;28;20256;-73
2023/08/28 09:53:30;;;;;;;2.55;0.60;;;;;;;15.63;99.32;101279.75;5096792;28;20028;-73
2023/08/28 09:55:57;;;;;;;1.58;0.60;;;;;;;15.63;98.79;101280.59;5095684;28;20815;-73
2023/08/28 09:58:24;;;;;;;0.60;0.60;;;;;;;15.68;98.57;101285.59;5092898;28;20028;-73
2023/08/28 10:00:51;;;;;;;2.53;0.77;;;;;;;15.69;98.36;101279.41;5093809;28;20299;-73
2023/08/28 10:03:19;;;;;;;2.90;0.80;;;;;;;15.71;98.36;101285.44;5093663;28;20347;-73
2023/08/28 10:05:45;;;;;;;2.25;0.90;;;;;;;15.71;98.42;101275.72;5087571;28;20035;-73
2023/08/28 10:08:13;;;;;;;2.92;0.80;;;;;;;15.72;98.66;101280.09;5093121;28;20036;-73
2023/08/28 10:10:41;;;;;;;1.08;0.50;;;;;;;15.74;99.14;101293.25;5093798;28;20031;-73
2023/08/28 10:13:13;;;;;;;1.35;0.70;;;;;;;15.74;99.42;101282.69;5092976;28;20204;-73
2023/08/28 10:16:03;;;;;;;1.02;0.75;;;;;;;15.73;99.46;101286.22;5091684;28;20239;-73
2023/08/28 10:18:40;;;;;;;4.05;0.90;;;;;;;15.71;99.67;101288.94;5092815;28;20268;-73
2023/08/28 10:21:06;;;;;;;1.83;0.52;;;;;;;15.72;99.79;101281.88;5089068;28;20031;-73
2023/08/28 10:23:33;;;;;;;0.77;0.77;;;;;;;15.71;99.92;101288.09;5071327;28;20103;-73
2023/08/28 10:26:01;;;;;;;1.13;0.55;;;;;;;15.71;100.00;101288.09;5086685;28;20358;-73
2023/08/28 10:28:26;;;;;;;1.40;0.98;;;;;;;15.72;100.00;101292.44;5087913;28;20044;-73
2023/08/28 10:30:52;;;;;;;1.00;0.80;;;;;;;15.70;100.00;101284.59;5086737;28;20032;-73
2023/08/28 10:33:22;;;;;;;1.52;1.20;;;;;;;15.72;100.00;101292.44;5093112;28;20078;-73
2023/08/28 10:35:51;;;;;;;1.35;0.80;;;;;;;15.74;100.00;101287.97;5093670;28;20059;-73
2023/08/28 10:38:19;;;;;;;4.32;0.90;;;;;;;15.76;100.00;101283.44;5085047;28;20032;-73
2023/08/28 10:40:49;;;;;;;0.63;0.60;;;;;;;15.79;100.00;101283.28;5084333;28;20043;-73
2023/08/28 10:43:17;;;;;;;0.93;0.93;;;;;;;15.83;100.00;101284.81;5094836;28;20028;-73
2023/08/28 10:45:43;;;;;;;0.90;0.77;;;;;;;15.86;100.00;101286.41;5095416;28;20073;-73
2023/08/28 10:48:09;;;;;;;1.05;0.85;;;;;;;15.90;100.00;101282.69;5095186;28;20335;-73
2023/08/28 10:50:38;;;;;;;2.47;1.00;;;;;;;15.94;100.00;101289.50;5093876;28;20035;-73
2023/08/28 10:53:05;;;;;;;0.70;0.60;;;;;;;15.97;100.00;101284.06;5094002;28;20253;-73
2023/08/28 10:55:31;;;;;;;0.63;0.60;;;;;;;16.01;100.00;101289.97;5089465;28;20108;-73
2023/08/28 10:58:02;;;;;;;0.55;0.55;;;;;;;16.04;100.00;101292.47;5083695;28;20043;-73
2023/08/28 11:00:29;;;;;;;0.73;0.73;;;;;;;16.05;100.00;101291.53;5086550;28;20031;-73
2023/08/28 11:03:14;;;;;;;4.43;0.90;;;;;;;16.07;100.00;101292.28;5081569;28;20060;-73
2023/08/28 11:05:41;;;;;;;0.90;0.70;;;;;;;16.07;100.00;101287.84;5083874;28;20325;-73
2023/08/28 11:08:11;;;;;;;0.95;0.90;;;;;;;16.10;100.00;101294.78;5082742;28;20066;-73
2023/08/28 11:10:44;;;;;;;0.70;0.70;;;;;;;16.10;100.00;101292.13;5082513;28;20057;-73
2023/08/28 11:13:19;;;;;;;1.27;0.77;;;;;;;16.09;100.00;101298.34;5082097;28;20065;-73
2023/08/28 11:15:45;;;;;;;0.70;0.70;;;;;;;16.10;100.00;101295.63;5079963;28;20093;-73